< < Back
Terminal Aerodrome Forecast


Current Version              Previous Versions:   1  2  3  4  5  6  7  8  9  

Terminal Aerodrome Forecast

969
FTUS42 KTAE 041120
TAFVLD
TAF
KVLD 041120Z 0412/0512 22003KT P6SM SCT015
      TEMPO 0412/0413 5SM BR
     FM041500 24004KT P6SM SCT040
     FM041800 19004KT P6SM VCTS BKN040CB
      TEMPO 0419/0423 VRB15G25KT 3SM TSRA
     FM050000 VRB03KT P6SM BKN250=

Latest METAR

965
SAUS70 KWBC 041600 RRD
MTRVLD
METAR KVLD 041553Z 17007KT 10SM FEW024 32/26 A3002


USA.gov is the U.S. government's official web portal to all federal, state and local government web resources and services.